Time;durP1;ratioP1;P1;durP2;ratioP2;P2;SDS_P1;SDS_P2;PMS_P1;PMS_P2;Temp;Humidity;BMP_temperature;BMP_pressure;BME280_temperature;BME280_humidity;BME280_pressure;Samples;Min_cycle;Max_cycle;Signal;HPM_P1;HPM_P2
2021/08/30 00:01:48;;;;;;;3.95;2.38;;;;;;;;;;4967363;28;20050;-83
2021/08/30 00:04:16;;;;;;;3.70;1.92;;;;;;;;;;4984453;28;20085;-83
2021/08/30 00:06:43;;;;;;;4.68;1.92;;;;;;;;;;4983182;28;20043;-83
2021/08/30 00:09:11;;;;;;;3.42;2.20;;;;;;;;;;4983577;28;20554;-83
2021/08/30 00:11:38;;;;;;;4.07;2.35;;;;;;;;;;4984854;28;20523;-83
2021/08/30 00:14:05;;;;;;;4.72;2.33;;;;;;;;;;4984537;28;20047;-83
2021/08/30 00:16:32;;;;;;;3.83;2.28;;;;;;;;;;4984554;28;20046;-83
2021/08/30 00:18:59;;;;;;;4.50;2.33;;;;;;;;;;4983642;28;20050;-83
2021/08/30 00:21:27;;;;;;;4.80;2.13;;;;;;;;;;4984430;28;20070;-82
2021/08/30 00:23:53;;;;;;;4.50;2.67;;;;;;;;;;4985301;28;20054;-83
2021/08/30 00:26:20;;;;;;;4.40;2.20;;;;;;;;;;4984458;28;20054;-83
2021/08/30 00:28:47;;;;;;;4.05;2.42;;;;;;;;;;4984410;28;20082;-83
2021/08/30 00:31:13;;;;;;;4.05;2.15;;;;;;;;;;4989806;28;20041;-83
2021/08/30 00:33:40;;;;;;;3.70;2.17;;;;;;;;;;4993032;28;20046;-83
2021/08/30 00:36:07;;;;;;;4.07;2.40;;;;;;;;;;4986185;28;20097;-83
2021/08/30 00:38:35;;;;;;;3.95;2.10;;;;;;;;;;4986807;28;20058;-83
2021/08/30 00:41:01;;;;;;;4.00;2.38;;;;;;;;;;4985440;28;20105;-83
2021/08/30 00:43:28;;;;;;;4.07;2.35;;;;;;;;;;4984603;28;20071;-83
2021/08/30 00:51:10;;;;;;;;;;;;;;;;;;4993808;28;20058;-85
2021/08/30 00:56:34;;;;;;;4.03;2.38;;;;;;;;;;4996824;28;20046;-85
2021/08/30 00:59:05;;;;;;;4.78;2.08;;;;;;;;;;5001259;28;20518;-85
2021/08/30 01:01:45;;;;;;;3.42;1.75;;;;;;;;;;5002641;28;20046;-85
2021/08/30 01:04:19;;;;;;;4.53;2.37;;;;;;;;;;4994852;28;20109;-85
2021/08/30 01:07:18;;;;;;;3.75;2.28;;;;;;;;;;4994005;28;20276;-85
2021/08/30 01:10:32;;;;;;;4.20;2.40;;;;;;;;;;4994412;28;20046;-85
2021/08/30 01:13:25;;;;;;;3.70;2.15;;;;;;;;;;4982016;28;20401;-85
2021/08/30 01:19:45;;;;;;;3.67;2.17;;;;;;;;;;4972348;28;20042;-85
2021/08/30 01:25:15;;;;;;;3.88;1.95;;;;;;;;;;4961745;28;20137;-85
2021/08/30 01:27:57;;;;;;;3.17;1.95;;;;;;;;;;4974685;28;20428;-85
2021/08/30 01:30:42;;;;;;;5.15;2.22;;;;;;;;;;4971612;28;20054;-85
2021/08/30 01:33:33;;;;;;;4.50;2.25;;;;;;;;;;4974680;28;20134;-85
2021/08/30 01:36:10;;;;;;;3.88;2.20;;;;;;;;;;4974259;28;20053;-85
2021/08/30 01:39:00;;;;;;;4.10;2.50;;;;;;;;;;4977286;28;20102;-85
2021/08/30 01:41:32;;;;;;;3.92;1.98;;;;;;;;;;4985005;28;20105;-85
2021/08/30 01:47:19;;;;;;;3.72;1.83;;;;;;;;;;4974376;28;20047;-85
2021/08/30 01:53:30;;;;;;;3.97;1.90;;;;;;;;;;4977065;28;20627;-85
2021/08/30 01:56:06;;;;;;;3.55;1.90;;;;;;;;;;4976054;28;20058;-85
2021/08/30 02:01:28;;;;;;;3.45;1.88;;;;;;;;;;4976905;28;20058;-85
2021/08/30 02:03:55;;;;;;;3.95;2.00;;;;;;;;;;4995897;28;20056;-85
2021/08/30 02:06:40;;;;;;;4.18;1.90;;;;;;;;;;4995560;28;20061;-85
2021/08/30 02:09:08;;;;;;;3.88;1.95;;;;;;;;;;4996596;28;20058;-85
2021/08/30 02:14:19;;;;;;;4.57;2.25;;;;;;;;;;4969366;28;20062;-85
2021/08/30 02:17:23;;;;;;;4.00;1.77;;;;;;;;;;4976462;28;20062;-85
2021/08/30 02:20:01;;;;;;;4.63;2.28;;;;;;;;;;4976790;28;20062;-85
2021/08/30 02:22:45;;;;;;;3.92;2.30;;;;;;;;;;4980248;28;20047;-85
2021/08/30 02:25:20;;;;;;;3.28;1.83;;;;;;;;;;4980009;28;20477;-85
2021/08/30 02:27:59;;;;;;;3.60;2.05;;;;;;;;;;4982521;28;20046;-85
2021/08/30 02:30:40;;;;;;;3.75;2.20;;;;;;;;;;4987116;28;20077;-85
2021/08/30 02:33:16;;;;;;;5.00;2.45;;;;;;;;;;4983695;28;20076;-85
2021/08/30 02:35:49;;;;;;;3.53;2.13;;;;;;;;;;4979154;28;20053;-85
2021/08/30 02:38:27;;;;;;;3.80;2.05;;;;;;;;;;4976800;28;20423;-85
2021/08/30 02:41:01;;;;;;;4.60;2.20;;;;;;;;;;4977337;28;20504;-85
2021/08/30 02:49:53;;;;;;;3.08;1.80;;;;;;;;;;4949526;28;20077;-85
2021/08/30 02:52:31;;;;;;;3.53;1.90;;;;;;;;;;4976915;28;20050;-85
2021/08/30 02:55:26;;;;;;;3.50;2.05;;;;;;;;;;4976607;28;20137;-85
2021/08/30 02:57:53;;;;;;;4.00;1.60;;;;;;;;;;4979015;28;20142;-85
2021/08/30 03:00:29;;;;;;;2.92;1.60;;;;;;;;;;4979466;28;20501;-85
2021/08/30 03:02:56;;;;;;;3.97;2.08;;;;;;;;;;4991526;28;20053;-85
2021/08/30 03:05:32;;;;;;;3.75;2.00;;;;;;;;;;4999028;28;20574;-85
2021/08/30 03:08:06;;;;;;;4.15;2.28;;;;;;;;;;4996402;28;20050;-85
2021/08/30 03:10:47;;;;;;;4.00;2.08;;;;;;;;;;4995818;28;20042;-85
2021/08/30 03:13:20;;;;;;;;;;;;;;;;;;4988118;28;20046;-85
2021/08/30 03:15:57;;;;;;;4.63;2.83;;;;;;;;;;4975714;28;19965;-85
2021/08/30 03:18:24;;;;;;;4.97;2.65;;;;;;;;;;4976899;28;20408;-85
2021/08/30 03:21:10;;;;;;;3.88;2.28;;;;;;;;;;4977326;28;20057;-85
2021/08/30 03:23:53;;;;;;;4.55;2.78;;;;;;;;;;4977348;28;20057;-85
2021/08/30 03:26:31;;;;;;;4.35;2.40;;;;;;;;;;4976031;28;20047;-85
2021/08/30 03:29:16;;;;;;;5.00;2.33;;;;;;;;;;4977129;28;20134;-85
2021/08/30 03:31:48;;;;;;;4.07;2.30;;;;;;;;;;4977358;28;20341;-85
2021/08/30 03:34:42;;;;;;;5.05;2.70;;;;;;;;;;4976703;28;20047;-85
2021/08/30 03:37:15;;;;;;;6.22;2.90;;;;;;;;;;4975687;28;20050;-85
2021/08/30 03:40:04;;;;;;;;;;;;;;;;;;;;;
2021/08/30 03:42:49;;;;;;;3.28;2.15;;;;;;;;;;4973223;28;20046;-85
2021/08/30 03:45:28;;;;;;;4.88;2.63;;;;;;;;;;4973783;28;20559;-85
2021/08/30 03:48:19;;;;;;;4.15;2.45;;;;;;;;;;4975849;28;20101;-85
2021/08/30 03:51:03;;;;;;;4.65;2.50;;;;;;;;;;4968910;28;20574;-85
2021/08/30 03:53:43;;;;;;;4.65;2.47;;;;;;;;;;4976051;28;20059;-85
2021/08/30 03:56:19;;;;;;;4.43;2.63;;;;;;;;;;4974706;28;20089;-85
2021/08/30 03:58:53;;;;;;;5.38;2.85;;;;;;;;;;4975621;28;20046;-85
2021/08/30 04:01:30;;;;;;;4.90;2.75;;;;;;;;;;4974874;28;20117;-85
2021/08/30 04:07:02;;;;;;;4.68;2.70;;;;;;;;;;4974345;28;20055;-85
2021/08/30 04:09:29;;;;;;;4.45;2.50;;;;;;;;;;4979210;28;20050;-84
2021/08/30 04:12:04;;;;;;;4.70;3.03;;;;;;;;;;4978625;28;20424;-85
2021/08/30 04:17:29;;;;;;;4.20;2.58;;;;;;;;;;4994153;28;20038;-85
2021/08/30 04:20:01;;;;;;;4.95;2.13;;;;;;;;;;4993817;28;20065;-85
2021/08/30 04:22:43;;;;;;;4.38;2.20;;;;;;;;;;4993821;28;20054;-85
2021/08/30 04:27:56;;;;;;;3.70;2.05;;;;;;;;;;4994318;28;20137;-85
2021/08/30 04:30:36;;;;;;;4.00;2.53;;;;;;;;;;4993175;28;20513;-85
2021/08/30 04:33:09;;;;;;;4.05;2.30;;;;;;;;;;4976281;28;20108;-85
2021/08/30 04:35:39;;;;;;;3.85;1.80;;;;;;;;;;4992498;28;20046;-85
2021/08/30 04:38:17;;;;;;;4.47;2.17;;;;;;;;;;4994382;28;20140;-85
2021/08/30 04:43:31;;;;;;;3.83;1.85;;;;;;;;;;4986479;28;20463;-85
2021/08/30 04:46:20;;;;;;;4.32;2.08;;;;;;;;;;4992138;28;20057;-85
2021/08/30 04:48:56;;;;;;;3.15;1.60;;;;;;;;;;4991950;28;20059;-85
2021/08/30 04:51:46;;;;;;;3.95;1.90;;;;;;;;;;4994598;28;20133;-85
2021/08/30 04:54:55;;;;;;;4.80;2.00;;;;;;;;;;4965485;28;20050;-85
2021/08/30 04:58:02;;;;;;;;;;;;;;;;;;;;;
2021/08/30 05:00:29;;;;;;;3.67;1.67;;;;;;;;;;4974043;28;20054;-85
2021/08/30 05:03:16;;;;;;;4.18;2.40;;;;;;;;;;4982378;28;20096;-85
2021/08/30 05:08:56;;;;;;;3.33;1.88;;;;;;;;;;4912362;28;20071;-85
2021/08/30 05:11:36;;;;;;;3.83;1.88;;;;;;;;;;4988774;28;20057;-85
2021/08/30 05:14:34;;;;;;;3.00;1.77;;;;;;;;;;5000249;28;20396;-85
2021/08/30 05:17:09;;;;;;;3.25;1.65;;;;;;;;;;4979126;28;20523;-85
2021/08/30 05:19:38;;;;;;;3.70;1.85;;;;;;;;;;4997815;28;20052;-85
2021/08/30 05:22:17;;;;;;;4.43;2.03;;;;;;;;;;4998879;28;20431;-85
2021/08/30 05:24:51;;;;;;;2.90;1.50;;;;;;;;;;5003589;28;20054;-85
2021/08/30 05:27:36;;;;;;;;;;;;;;;;;;;;;
2021/08/30 05:30:12;;;;;;;3.72;1.60;;;;;;;;;;5015913;28;20078;-85
2021/08/30 05:32:49;;;;;;;3.10;1.60;;;;;;;;;;5000286;28;20129;-85
2021/08/30 05:35:26;;;;;;;3.72;2.15;;;;;;;;;;4998497;28;20456;-85
2021/08/30 05:38:07;;;;;;;3.95;1.70;;;;;;;;;;4998765;28;20046;-85
2021/08/30 05:40:39;;;;;;;4.05;1.92;;;;;;;;;;4999237;28;20058;-85
2021/08/30 05:43:05;;;;;;;4.07;1.90;;;;;;;;;;4997983;28;20137;-85
2021/08/30 05:45:38;;;;;;;3.83;1.90;;;;;;;;;;4997387;28;20058;-85
2021/08/30 05:51:06;;;;;;;4.28;1.80;;;;;;;;;;4996224;28;20078;-85
2021/08/30 05:53:38;;;;;;;3.65;2.05;;;;;;;;;;4997080;28;20077;-85
2021/08/30 05:56:30;;;;;;;3.13;1.70;;;;;;;;;;4995573;28;20050;-85
2021/08/30 05:59:03;;;;;;;3.88;1.65;;;;;;;;;;4997138;28;20050;-85
2021/08/30 06:01:42;;;;;;;3.22;1.58;;;;;;;;;;4996817;28;20121;-85
2021/08/30 06:04:11;;;;;;;2.95;1.52;;;;;;;;;;4977655;28;20043;-85
2021/08/30 06:06:39;;;;;;;3.40;1.50;;;;;;;;;;4976365;28;20097;-85
2021/08/30 06:09:17;;;;;;;3.90;1.55;;;;;;;;;;4977308;28;20055;-85
2021/08/30 06:11:51;;;;;;;2.80;1.20;;;;;;;;;;4978819;28;20110;-85
2021/08/30 06:14:31;;;;;;;3.60;1.50;;;;;;;;;;4990940;28;20103;-85
2021/08/30 06:17:10;;;;;;;2.50;1.25;;;;;;;;;;4996560;28;20050;-85
2021/08/30 06:19:37;;;;;;;3.05;1.27;;;;;;;;;;4996697;28;20058;-85
2021/08/30 06:22:10;;;;;;;3.38;1.48;;;;;;;;;;4997463;28;20042;-85
2021/08/30 06:24:57;;;;;;;2.92;1.30;;;;;;;;;;4997333;28;20462;-85
2021/08/30 06:27:42;;;;;;;;;;;;;;;;;;;;;
2021/08/30 06:32:58;;;;;;;2.58;1.05;;;;;;;;;;4955107;29;20059;-84
2021/08/30 06:35:42;;;;;;;2.83;1.27;;;;;;;;;;4986635;28;20054;-85
2021/08/30 06:38:21;;;;;;;1.85;0.95;;;;;;;;;;4995259;28;20065;-85
2021/08/30 06:40:48;;;;;;;2.30;0.98;;;;;;;;;;4997721;28;20054;-85
2021/08/30 06:43:37;;;;;;;1.95;0.88;;;;;;;;;;4998419;28;20047;-85
2021/08/30 06:46:27;;;;;;;1.95;0.80;;;;;;;;;;4991032;28;20058;-85
2021/08/30 06:49:14;;;;;;;1.67;0.90;;;;;;;;;;4999162;28;20073;-85
2021/08/30 06:51:49;;;;;;;2.42;1.00;;;;;;;;;;4997292;28;20137;-84
2021/08/30 06:54:33;;;;;;;2.47;0.95;;;;;;;;;;4997611;28;20050;-84
2021/08/30 06:57:04;;;;;;;1.38;0.55;;;;;;;;;;4996994;28;20050;-85
2021/08/30 06:59:38;;;;;;;1.33;0.80;;;;;;;;;;4997046;28;20464;-85
2021/08/30 07:02:05;;;;;;;1.17;0.70;;;;;;;;;;4992529;28;20044;-85
2021/08/30 07:07:18;;;;;;;;;;;;;;;;;;4973283;28;20058;-85
2021/08/30 07:09:53;;;;;;;1.60;0.70;;;;;;;;;;4977300;28;20401;-85
2021/08/30 07:15:27;;;;;;;1.85;0.90;;;;;;;;;;4983171;28;20066;-84
2021/08/30 07:18:04;;;;;;;1.83;0.90;;;;;;;;;;5005267;28;20184;-84
2021/08/30 07:20:38;;;;;;;1.90;0.85;;;;;;;;;;5013888;28;20134;-84
2021/08/30 07:23:10;;;;;;;2.13;1.23;;;;;;;;;;5010296;28;20050;-84
2021/08/30 07:26:08;;;;;;;1.23;0.80;;;;;;;;;;5005599;28;20042;-84
2021/08/30 07:28:44;;;;;;;2.45;1.50;;;;;;;;;;4990600;28;20065;-84
2021/08/30 07:31:15;;;;;;;2.70;1.55;;;;;;;;;;4997235;28;20050;-84
2021/08/30 07:33:48;;;;;;;1.33;0.80;;;;;;;;;;4997311;28;20096;-84
2021/08/30 07:36:15;;;;;;;1.30;0.90;;;;;;;;;;4995348;28;20173;-84
2021/08/30 07:38:51;;;;;;;1.60;0.85;;;;;;;;;;4996130;28;20050;-84
2021/08/30 07:41:58;;;;;;;2.28;1.00;;;;;;;;;;4994190;28;20058;-84
2021/08/30 07:50:31;;;;;;;1.98;1.08;;;;;;;;;;4989445;28;20042;-84
2021/08/30 07:55:53;;;;;;;2.70;1.20;;;;;;;;;;4992090;28;20058;-84
2021/08/30 07:58:39;;;;;;;2.42;1.30;;;;;;;;;;4993957;28;20498;-84
2021/08/30 08:01:19;;;;;;;2.42;1.20;;;;;;;;;;4992906;28;20055;-84
2021/08/30 08:06:59;;;;;;;3.72;1.80;;;;;;;;;;4957046;28;20500;-84
2021/08/30 08:09:25;;;;;;;3.53;1.92;;;;;;;;;;4973806;28;20500;-84
2021/08/30 08:11:52;;;;;;;3.22;2.00;;;;;;;;;;4974177;28;20046;-84
2021/08/30 08:14:51;;;;;;;3.30;2.22;;;;;;;;;;4990352;28;20061;-85
2021/08/30 08:17:31;;;;;;;4.95;2.83;;;;;;;;;;4905038;29;20052;-84
2021/08/30 08:20:09;;;;;;;3.50;2.35;;;;;;;;;;4914688;29;20056;-85
2021/08/30 08:22:42;;;;;;;4.32;2.75;;;;;;;;;;4915207;29;20056;-85
2021/08/30 08:25:15;;;;;;;3.33;1.98;;;;;;;;;;4984356;28;20047;-84
2021/08/30 08:27:49;;;;;;;2.40;1.75;;;;;;;;;;5051468;23;20136;-85
2021/08/30 08:33:22;;;;;;;2.90;1.90;;;;;;;;;;5012888;28;20046;-84
2021/08/30 08:35:49;;;;;;;2.45;1.88;;;;;;;;;;5012502;28;20049;-84
2021/08/30 08:38:15;;;;;;;2.60;1.50;;;;;;;;;;5012633;28;20054;-84
2021/08/30 08:40:48;;;;;;;2.97;1.67;;;;;;;;;;5013247;28;20136;-84
2021/08/30 08:43:26;;;;;;;3.53;1.88;;;;;;;;;;5015016;28;20110;-84
2021/08/30 08:46:08;;;;;;;3.65;1.90;;;;;;;;;;5012194;28;20049;-84
2021/08/30 08:48:49;;;;;;;7.47;2.25;;;;;;;;;;5016223;28;20468;-84
2021/08/30 08:51:16;;;;;;;3.60;1.67;;;;;;;;;;5016655;28;20049;-84
2021/08/30 08:54:01;;;;;;;;;;;;;;;;;;;;;
2021/08/30 08:59:25;;;;;;;2.30;1.23;;;;;;;;;;5000469;28;20061;-84
2021/08/30 09:02:08;;;;;;;1.38;1.08;;;;;;;;;;5017119;28;20679;-84
2021/08/30 09:10:21;;;;;;;;;;;;;;;;;;4998030;28;20058;-83
2021/08/30 09:13:15;;;;;;;1.75;1.20;;;;;;;;;;5010158;28;19952;-85
2021/08/30 09:15:51;;;;;;;2.10;1.20;;;;;;;;;;4936019;29;20126;-83
2021/08/30 09:21:25;;;;;;;2.70;1.60;;;;;;;;;;4919963;29;20086;-83
2021/08/30 09:24:30;;;;;;;2.55;1.20;;;;;;;;;;4938008;29;20052;-85
2021/08/30 09:27:12;;;;;;;2.75;1.58;;;;;;;;;;4872420;29;20125;-86
2021/08/30 09:29:47;;;;;;;2.22;1.20;;;;;;;;;;4948343;29;20119;-84
2021/08/30 09:32:20;;;;;;;2.30;1.00;;;;;;;;;;4955289;29;20051;-83
2021/08/30 09:37:57;;;;;;;2.00;0.90;;;;;;;;;;4949527;29;20055;-85
2021/08/30 09:43:39;;;;;;;2.70;1.10;;;;;;;;;;4954686;29;20063;-84
2021/08/30 09:46:12;;;;;;;2.38;1.25;;;;;;;;;;5002002;28;20514;-84
2021/08/30 09:49:19;;;;;;;1.67;1.02;;;;;;;;;;4997913;28;20062;-84
2021/08/30 09:52:16;;;;;;;2.90;1.40;;;;;;;;;;4997127;28;20105;-84
2021/08/30 09:57:51;;;;;;;2.50;1.25;;;;;;;;;;4995006;28;20046;-85
2021/08/30 10:00:20;;;;;;;2.28;1.20;;;;;;;;;;4995720;28;20105;-85
2021/08/30 10:03:00;;;;;;;1.60;1.15;;;;;;;;;;4996964;28;20054;-85
2021/08/30 10:05:37;;;;;;;2.15;1.10;;;;;;;;;;4995482;28;20061;-85
2021/08/30 10:08:25;;;;;;;2.47;1.33;;;;;;;;;;4995782;28;20506;-87
2021/08/30 10:10:52;;;;;;;1.70;0.95;;;;;;;;;;4995906;28;20058;-87
2021/08/30 10:16:01;;;;;;;1.80;1.08;;;;;;;;;;5008374;23;20058;-87
2021/08/30 10:18:33;;;;;;;2.03;1.13;;;;;;;;;;5017509;28;20053;-86
2021/08/30 10:21:08;;;;;;;2.40;1.10;;;;;;;;;;5014853;28;20077;-87
2021/08/30 10:27:09;;;;;;;1.70;0.95;;;;;;;;;;5014536;28;20087;-87
2021/08/30 10:29:45;;;;;;;2.05;1.30;;;;;;;;;;5030214;28;20050;-87
2021/08/30 10:32:58;;;;;;;1.90;1.00;;;;;;;;;;5030618;28;20487;-87
2021/08/30 10:35:58;;;;;;;2.05;1.15;;;;;;;;;;5031852;28;20065;-87
2021/08/30 10:38:31;;;;;;;2.40;1.20;;;;;;;;;;5011657;28;20081;-87
2021/08/30 10:40:58;;;;;;;2.70;1.30;;;;;;;;;;5011724;28;20052;-88
2021/08/30 10:47:34;;;;;;;2.00;1.10;;;;;;;;;;5005677;28;20136;-86
2021/08/30 10:50:24;;;;;;;1.77;1.02;;;;;;;;;;5028785;28;20061;-86
2021/08/30 10:53:22;;;;;;;2.38;1.30;;;;;;;;;;5020292;28;20050;-86
2021/08/30 11:01:21;;;;;;;3.03;1.60;;;;;;;;;;4995887;28;20061;-87
2021/08/30 11:07:06;;;;;;;3.17;1.23;;;;;;;;;;4973444;28;20043;-86
2021/08/30 11:09:33;;;;;;;2.45;1.40;;;;;;;;;;4959222;28;20055;-86
2021/08/30 11:12:23;;;;;;;1.65;1.05;;;;;;;;;;4954977;29;20051;-86
2021/08/30 11:15:04;;;;;;;2.22;1.35;;;;;;;;;;4935198;29;20083;-86
2021/08/30 11:17:40;;;;;;;2.80;1.42;;;;;;;;;;4934339;29;20063;-86
2021/08/30 11:23:22;;;;;;;1.75;0.90;;;;;;;;;;4840954;29;20065;-87
2021/08/30 11:28:39;;;;;;;2.85;1.35;;;;;;;;;;5074234;23;20054;-86
2021/08/30 11:31:06;;;;;;;2.90;1.40;;;;;;;;;;5004169;28;20050;-86
2021/08/30 11:40:50;;;;;;;3.20;1.65;;;;;;;;;;5020330;28;20142;-87
2021/08/30 11:46:48;;;;;;;3.10;1.88;;;;;;;;;;5020903;28;20060;-87
2021/08/30 11:49:20;;;;;;;2.97;1.40;;;;;;;;;;5030563;28;20045;-88
2021/08/30 11:54:49;;;;;;;3.92;2.65;;;;;;;;;;5006932;28;20499;-87
2021/08/30 11:57:28;;;;;;;6.07;4.32;;;;;;;;;;5031134;28;20049;-87
2021/08/30 12:00:23;;;;;;;2.88;1.63;;;;;;;;;;5034210;28;20113;-87
2021/08/30 12:02:57;;;;;;;3.03;1.33;;;;;;;;;;5035417;28;20553;-87
2021/08/30 12:06:13;;;;;;;1.83;1.20;;;;;;;;;;5035702;28;20460;-87
2021/08/30 12:08:50;;;;;;;4.72;1.20;;;;;;;;;;5031524;28;20077;-87
2021/08/30 12:14:38;;;;;;;;;;;;;;;;;;5024477;28;20169;-87
2021/08/30 12:20:03;;;;;;;4.78;3.30;;;;;;;;;;5033937;28;20065;-87
2021/08/30 12:22:54;;;;;;;3.42;2.40;;;;;;;;;;5033222;28;20050;-87
2021/08/30 12:25:30;;;;;;;3.72;1.90;;;;;;;;;;5039369;28;20060;-87
2021/08/30 12:28:05;;;;;;;4.57;3.00;;;;;;;;;;5033063;28;20084;-87
2021/08/30 12:30:45;;;;;;;2.67;1.70;;;;;;;;;;5030609;28;20115;-87
2021/08/30 12:33:21;;;;;;;3.08;1.70;;;;;;;;;;5029788;28;20049;-87
2021/08/30 12:38:45;;;;;;;4.35;2.63;;;;;;;;;;5037279;22;20060;-87
2021/08/30 12:41:12;;;;;;;4.50;2.67;;;;;;;;;;5030023;28;20045;-87
2021/08/30 12:43:47;;;;;;;5.18;3.40;;;;;;;;;;5025020;28;20065;-87
2021/08/30 12:46:34;;;;;;;3.05;2.13;;;;;;;;;;5016829;28;20415;-87
2021/08/30 12:49:04;;;;;;;3.05;1.70;;;;;;;;;;5018610;28;20042;-87
2021/08/30 12:51:36;;;;;;;3.27;1.87;;;;;;;;;;5017269;28;20124;-87
2021/08/30 12:56:58;;;;;;;2.05;1.50;;;;;;;;;;5013315;28;20050;-88
2021/08/30 12:59:31;;;;;;;3.40;1.92;;;;;;;;;;5016722;28;20081;-86
2021/08/30 13:02:05;;;;;;;6.05;3.63;;;;;;;;;;5016908;28;20050;-87
2021/08/30 13:04:51;;;;;;;2.50;1.77;;;;;;;;;;5020444;28;20053;-86
2021/08/30 13:07:25;;;;;;;3.25;1.70;;;;;;;;;;5016948;28;20049;-86
2021/08/30 13:10:07;;;;;;;4.38;2.80;;;;;;;;;;5016716;28;20403;-87
2021/08/30 13:12:50;;;;;;;5.97;3.67;;;;;;;;;;5016457;28;20127;-87
2021/08/30 13:15:32;;;;;;;4.30;2.50;;;;;;;;;;5016395;28;20070;-86
2021/08/30 13:17:59;;;;;;;2.42;1.40;;;;;;;;;;5039409;22;20426;-86
2021/08/30 13:20:27;;;;;;;2.50;1.67;;;;;;;;;;5036487;28;20069;-87
2021/08/30 13:23:01;;;;;;;4.55;2.55;;;;;;;;;;5035358;28;20075;-87
2021/08/30 13:25:37;;;;;;;4.68;3.33;;;;;;;;;;5036029;28;20049;-87
2021/08/30 13:28:32;;;;;;;3.58;2.35;;;;;;;;;;5056302;22;20049;-87
2021/08/30 13:30:59;;;;;;;3.05;1.83;;;;;;;;;;5014390;28;20134;-87
2021/08/30 13:33:45;;;;;;;;;;;;;;;;;;;;;
2021/08/30 13:39:08;;;;;;;2.70;1.40;;;;;;;;;;5009992;28;20050;-85
2021/08/30 13:41:46;;;;;;;2.45;1.83;;;;;;;;;;5021682;28;20112;-87
2021/08/30 13:44:27;;;;;;;2.72;1.60;;;;;;;;;;5022856;28;20046;-87
2021/08/30 13:47:07;;;;;;;3.03;1.88;;;;;;;;;;5036560;28;20050;-87
2021/08/30 13:49:34;;;;;;;2.40;1.60;;;;;;;;;;5030103;28;20104;-86
2021/08/30 13:52:22;;;;;;;;;;;;;;;;;;;;;
2021/08/30 13:55:04;;;;;;;3.00;1.95;;;;;;;;;;5033768;28;20056;-86
2021/08/30 13:58:00;;;;;;;2.97;1.65;;;;;;;;;;5032212;28;20141;-87
2021/08/30 14:03:33;;;;;;;3.22;1.80;;;;;;;;;;4974023;28;20054;-87
2021/08/30 14:06:08;;;;;;;3.65;1.50;;;;;;;;;;4982715;22;20129;-87
2021/08/30 14:11:18;;;;;;;2.45;1.58;;;;;;;;;;4980768;28;20054;-88
2021/08/30 14:13:58;;;;;;;2.53;1.30;;;;;;;;;;5015338;28;20046;-87
2021/08/30 14:16:38;;;;;;;;;;;;;;;;;;;;;
2021/08/30 14:19:08;;;;;;;3.10;1.73;;;;;;;;;;5028685;28;20283;-87
2021/08/30 14:21:43;;;;;;;3.58;1.30;;;;;;;;;;5034477;28;20052;-86
2021/08/30 14:24:27;;;;;;;1.90;1.23;;;;;;;;;;5033858;28;20059;-86
2021/08/30 14:27:17;;;;;;;7.35;5.28;;;;;;;;;;5033334;22;20376;-87
2021/08/30 14:44:25;;;;;;;5.15;2.58;;;;;;;;;;5051408;28;20106;-87
2021/08/30 14:49:46;;;;;;;3.95;1.80;;;;;;;;;;5055152;28;20454;-87
2021/08/30 14:52:22;;;;;;;4.40;1.98;;;;;;;;;;5054360;28;20053;-87
2021/08/30 14:57:41;;;;;;;3.22;1.77;;;;;;;;;;5052845;28;20053;-87
2021/08/30 15:00:29;;;;;;;2.60;1.45;;;;;;;;;;5053551;28;20120;-87
2021/08/30 15:03:41;;;;;;;2.67;1.60;;;;;;;;;;5053850;28;20049;-87
2021/08/30 15:06:24;;;;;;;;;;;;;;;;;;;;;
2021/08/30 15:09:16;;;;;;;;;;;;;;;;;;;;;
2021/08/30 15:11:54;;;;;;;2.75;1.80;;;;;;;;;;5035788;28;20419;-86
2021/08/30 15:14:28;;;;;;;3.60;2.30;;;;;;;;;;5030562;28;20063;-87
2021/08/30 15:19:51;;;;;;;4.22;2.30;;;;;;;;;;5007233;28;20053;-87
2021/08/30 15:22:19;;;;;;;;;;;;;;;;;;5017978;28;20061;-87
2021/08/30 15:27:21;;;;;;;3.30;2.08;;;;;;;;;;5020490;28;20048;-87
2021/08/30 15:29:55;;;;;;;3.38;2.22;;;;;;;;;;5022340;28;20058;-87
2021/08/30 15:32:31;;;;;;;2.88;2.00;;;;;;;;;;5014581;28;20072;-85
2021/08/30 15:34:58;;;;;;;3.28;2.25;;;;;;;;;;5014100;28;20065;-86
2021/08/30 15:40:52;;;;;;;6.13;4.43;;;;;;;;;;4971913;28;20106;-86
2021/08/30 15:43:28;;;;;;;4.47;2.78;;;;;;;;;;4972558;28;20055;-87
2021/08/30 15:46:02;;;;;;;5.03;2.80;;;;;;;;;;4970863;28;20509;-87
2021/08/30 15:54:42;;;;;;;;;;;;;;;;;;;;;
2021/08/30 15:57:26;;;;;;;5.40;3.63;;;;;;;;;;4873236;29;20053;-87
2021/08/30 16:00:01;;;;;;;4.53;2.40;;;;;;;;;;4876717;29;20053;-87
2021/08/30 16:02:28;;;;;;;4.40;2.58;;;;;;;;;;4876635;29;20045;-86
2021/08/30 16:09:07;;;;;;;6.00;3.50;;;;;;;;;;4838685;29;20168;-87
2021/08/30 16:14:35;;;;;;;5.40;3.55;;;;;;;;;;4822921;29;20069;-86
2021/08/30 16:17:15;;;;;;;5.93;2.92;;;;;;;;;;4886477;29;20044;-87
2021/08/30 16:19:41;;;;;;;4.85;3.20;;;;;;;;;;4916428;29;20056;-87
2021/08/30 16:22:08;;;;;;;4.97;3.28;;;;;;;;;;4930203;29;20052;-86
2021/08/30 16:24:41;;;;;;;4.60;2.75;;;;;;;;;;4938994;29;20048;-86
2021/08/30 16:27:43;;;;;;;4.78;2.53;;;;;;;;;;4938114;29;20052;-87
2021/08/30 16:33:39;;;;;;;3.90;2.10;;;;;;;;;;4967513;29;20046;-86
2021/08/30 16:38:56;;;;;;;3.40;2.13;;;;;;;;;;5057278;28;20103;-87
2021/08/30 16:45:42;;;;;;;3.42;2.47;;;;;;;;;;5004619;28;20057;-86
2021/08/30 17:06:11;;;;;;;4.82;3.60;;;;;;;;;;5065365;28;20040;-87
2021/08/30 17:08:38;;;;;;;5.30;3.65;;;;;;;;;;5048682;28;20379;-87
2021/08/30 17:13:54;;;;;;;6.13;4.75;;;;;;;;;;5042583;28;20411;-86
2021/08/30 17:16:30;;;;;;;4.78;2.95;;;;;;;;;;5038175;28;20072;-86
2021/08/30 17:22:33;;;;;;;4.53;2.88;;;;;;;;;;4916875;29;20052;-86
2021/08/30 17:27:58;;;;;;;5.25;3.25;;;;;;;;;;4948618;28;20067;-87
2021/08/30 17:30:33;;;;;;;5.22;3.35;;;;;;;;;;4959076;28;20055;-87
2021/08/30 17:33:09;;;;;;;4.68;2.35;;;;;;;;;;5036271;28;20080;-87
2021/08/30 17:35:42;;;;;;;3.25;1.90;;;;;;;;;;5035364;28;20049;-87
2021/08/30 17:38:11;;;;;;;4.10;2.30;;;;;;;;;;5070045;22;20391;-87
2021/08/30 19:47:59;;;;;;;;;;;;;;;;;;;;;
2021/08/30 20:01:36;;;;;;;4.10;2.47;;;;;;;;;;4854119;29;20077;-85
2021/08/30 20:07:49;;;;;;;3.70;2.42;;;;;;;;;;4996680;28;20508;-87
2021/08/30 20:14:42;;;;;;;4.72;2.47;;;;;;;;;;4823170;29;20179;-86
2021/08/30 20:38:55;;;;;;;4.15;2.40;;;;;;;;;;4774348;29;20059;-86
2021/08/30 20:48:55;;;;;;;4.40;2.50;;;;;;;;;;4767970;30;20562;-86
2021/08/30 21:21:08;;;;;;;4.90;2.70;;;;;;;;;;4914400;29;20049;-86
2021/08/30 21:23:35;;;;;;;4.18;2.50;;;;;;;;;;4994138;28;20085;-86
2021/08/30 21:26:21;;;;;;;3.95;2.42;;;;;;;;;;5004967;23;20061;-86
2021/08/30 21:28:48;;;;;;;5.32;2.72;;;;;;;;;;5013707;28;20127;-86
2021/08/30 21:31:15;;;;;;;4.00;2.60;;;;;;;;;;5014930;28;20129;-86
2021/08/30 21:33:42;;;;;;;4.80;3.10;;;;;;;;;;5014607;28;20046;-86
2021/08/30 21:39:33;;;;;;;;;;;;;;;;;;;;;
2021/08/30 21:42:00;;;;;;;5.03;3.00;;;;;;;;;;5012147;28;20052;-86
2021/08/30 21:44:27;;;;;;;4.95;3.20;;;;;;;;;;5014341;28;20046;-86
2021/08/30 21:47:08;;;;;;;4.63;2.97;;;;;;;;;;5006517;28;20051;-86
2021/08/30 21:49:41;;;;;;;5.75;2.92;;;;;;;;;;4994834;28;20570;-86
2021/08/30 21:55:32;;;;;;;4.65;2.97;;;;;;;;;;4984117;28;20054;-86
2021/08/30 21:58:05;;;;;;;4.40;2.90;;;;;;;;;;5012428;28;20050;-86
2021/08/30 22:00:32;;;;;;;5.18;3.30;;;;;;;;;;5014833;28;20051;-86
2021/08/30 22:02:59;;;;;;;4.90;3.10;;;;;;;;;;5015530;28;20073;-86
2021/08/30 22:05:26;;;;;;;6.25;3.47;;;;;;;;;;5016650;28;20090;-86
2021/08/30 22:10:53;;;;;;;6.35;3.83;;;;;;;;;;5002250;28;20057;-86
2021/08/30 22:13:26;;;;;;;5.30;3.40;;;;;;;;;;4998962;28;20055;-86
2021/08/30 22:15:52;;;;;;;6.40;4.00;;;;;;;;;;4997371;28;20128;-86
2021/08/30 22:18:35;;;;;;;6.55;4.45;;;;;;;;;;4996037;28;20070;-86
2021/08/30 22:21:12;;;;;;;4.75;3.40;;;;;;;;;;5004135;28;20058;-86
2021/08/30 22:32:39;;;;;;;5.80;4.00;;;;;;;;;;4996924;28;20050;-86
2021/08/30 22:35:15;;;;;;;8.23;4.90;;;;;;;;;;4996952;28;20500;-86
2021/08/30 22:37:57;;;;;;;7.05;4.28;;;;;;;;;;4996463;28;20555;-86
2021/08/30 22:40:31;;;;;;;6.38;4.00;;;;;;;;;;4994800;28;20046;-86
2021/08/30 22:43:17;;;;;;;5.43;3.58;;;;;;;;;;4994851;28;20053;-86
2021/08/30 22:45:44;;;;;;;5.43;3.78;;;;;;;;;;4994423;28;20062;-86
2021/08/30 22:48:12;;;;;;;6.32;4.43;;;;;;;;;;4994074;28;20331;-86
2021/08/30 22:50:49;;;;;;;5.72;4.00;;;;;;;;;;4994274;28;20050;-86
2021/08/30 22:53:16;;;;;;;5.60;4.00;;;;;;;;;;4994619;28;20069;-86
2021/08/30 22:55:58;;;;;;;7.07;4.63;;;;;;;;;;4993648;28;20049;-86
2021/08/30 22:58:40;;;;;;;6.35;4.00;;;;;;;;;;4994172;28;20057;-86
2021/08/30 23:01:07;;;;;;;6.18;4.25;;;;;;;;;;4994149;28;20082;-86
2021/08/30 23:03:40;;;;;;;5.70;3.75;;;;;;;;;;4994063;28;20050;-86
2021/08/30 23:06:55;;;;;;;5.68;3.97;;;;;;;;;;5003537;23;20463;-86
2021/08/30 23:09:28;;;;;;;6.65;3.90;;;;;;;;;;5033145;28;20049;-86
2021/08/30 23:11:55;;;;;;;6.82;4.30;;;;;;;;;;5033158;28;20128;-86
2021/08/30 23:14:57;;;;;;;7.70;5.07;;;;;;;;;;5033229;28;20045;-86
2021/08/30 23:17:40;;;;;;;5.75;4.40;;;;;;;;;;5021013;28;20136;-86
2021/08/30 23:20:29;;;;;;;;;;;;;;;;;;;;;
2021/08/30 23:23:07;;;;;;;7.22;4.80;;;;;;;;;;5015952;28;20052;-86
2021/08/30 23:25:40;;;;;;;7.45;4.85;;;;;;;;;;5013224;28;20463;-87
2021/08/30 23:28:14;;;;;;;6.97;4.88;;;;;;;;;;5013121;28;20049;-87
2021/08/30 23:30:57;;;;;;;7.65;4.68;;;;;;;;;;5013066;28;20213;-86
2021/08/30 23:33:31;;;;;;;6.40;4.65;;;;;;;;;;5012927;28;20054;-86